sensor_id;sensor_type;location;lat;lon;timestamp;P1;durP1;ratioP1;P2;durP2;ratioP2
81353;SDS011;70810;52.038;8.524;2023-11-19T00:00:26;24.80;;;11.45;;
81353;SDS011;70810;52.038;8.524;2023-11-19T00:02:53;45.25;;;9.10;;
81353;SDS011;70810;52.038;8.524;2023-11-19T00:05:23;27.92;;;8.27;;
81353;SDS011;70810;52.038;8.524;2023-11-19T00:07:51;31.30;;;7.55;;
81353;SDS011;70810;52.038;8.524;2023-11-19T00:10:18;30.33;;;7.85;;
81353;SDS011;70810;52.038;8.524;2023-11-19T00:12:46;21.63;;;5.43;;
81353;SDS011;70810;52.038;8.524;2023-11-19T00:15:14;23.20;;;6.07;;
81353;SDS011;70810;52.038;8.524;2023-11-19T00:17:42;19.10;;;6.53;;
81353;SDS011;70810;52.038;8.524;2023-11-19T00:20:14;25.35;;;6.85;;
81353;SDS011;70810;52.038;8.524;2023-11-19T00:22:48;23.63;;;7.15;;
81353;SDS011;70810;52.038;8.524;2023-11-19T00:25:31;22.27;;;6.30;;
81353;SDS011;70810;52.038;8.524;2023-11-19T00:27:58;16.95;;;4.97;;
81353;SDS011;70810;52.038;8.524;2023-11-19T00:30:24;17.50;;;4.88;;
81353;SDS011;70810;52.038;8.524;2023-11-19T00:32:51;35.53;;;7.22;;
81353;SDS011;70810;52.038;8.524;2023-11-19T00:35:18;34.83;;;6.22;;
81353;SDS011;70810;52.038;8.524;2023-11-19T00:37:45;29.40;;;6.13;;
81353;SDS011;70810;52.038;8.524;2023-11-19T00:40:12;25.27;;;5.90;;
81353;SDS011;70810;52.038;8.524;2023-11-19T00:42:42;14.20;;;5.68;;
81353;SDS011;70810;52.038;8.524;2023-11-19T00:45:09;32.88;;;7.65;;
81353;SDS011;70810;52.038;8.524;2023-11-19T00:47:37;37.00;;;7.97;;
81353;SDS011;70810;52.038;8.524;2023-11-19T00:50:05;20.63;;;6.53;;
81353;SDS011;70810;52.038;8.524;2023-11-19T00:52:34;34.83;;;8.38;;
81353;SDS011;70810;52.038;8.524;2023-11-19T00:55:01;36.50;;;8.40;;
81353;SDS011;70810;52.038;8.524;2023-11-19T00:57:29;15.70;;;6.38;;
81353;SDS011;70810;52.038;8.524;2023-11-19T00:59:59;29.70;;;7.63;;
81353;SDS011;70810;52.038;8.524;2023-11-19T01:02:25;31.17;;;7.63;;
81353;SDS011;70810;52.038;8.524;2023-11-19T01:04:52;20.35;;;5.43;;
81353;SDS011;70810;52.038;8.524;2023-11-19T01:07:21;18.23;;;5.50;;
81353;SDS011;70810;52.038;8.524;2023-11-19T01:09:49;29.95;;;8.35;;
81353;SDS011;70810;52.038;8.524;2023-11-19T01:12:16;43.72;;;6.45;;
81353;SDS011;70810;52.038;8.524;2023-11-19T01:14:43;19.83;;;5.50;;
81353;SDS011;70810;52.038;8.524;2023-11-19T01:17:11;16.73;;;5.97;;
81353;SDS011;70810;52.038;8.524;2023-11-19T01:19:41;25.13;;;7.47;;
81353;SDS011;70810;52.038;8.524;2023-11-19T01:22:08;18.92;;;7.00;;
81353;SDS011;70810;52.038;8.524;2023-11-19T01:24:35;42.22;;;8.95;;
81353;SDS011;70810;52.038;8.524;2023-11-19T01:27:02;27.00;;;8.50;;
81353;SDS011;70810;52.038;8.524;2023-11-19T01:29:29;28.10;;;8.10;;
81353;SDS011;70810;52.038;8.524;2023-11-19T01:31:56;33.53;;;9.45;;
81353;SDS011;70810;52.038;8.524;2023-11-19T01:34:24;31.88;;;10.05;;
81353;SDS011;70810;52.038;8.524;2023-11-19T01:36:51;20.23;;;8.80;;
81353;SDS011;70810;52.038;8.524;2023-11-19T01:39:18;30.33;;;10.88;;
81353;SDS011;70810;52.038;8.524;2023-11-19T01:41:46;26.35;;;11.55;;
81353;SDS011;70810;52.038;8.524;2023-11-19T01:44:13;20.15;;;9.82;;
81353;SDS011;70810;52.038;8.524;2023-11-19T01:46:42;27.10;;;10.57;;
81353;SDS011;70810;52.038;8.524;2023-11-19T01:49:14;31.35;;;10.65;;
81353;SDS011;70810;52.038;8.524;2023-11-19T01:51:45;29.77;;;10.38;;
81353;SDS011;70810;52.038;8.524;2023-11-19T01:54:20;23.77;;;11.00;;
81353;SDS011;70810;52.038;8.524;2023-11-19T01:56:47;24.45;;;11.93;;
81353;SDS011;70810;52.038;8.524;2023-11-19T01:59:13;24.20;;;10.45;;
81353;SDS011;70810;52.038;8.524;2023-11-19T02:01:41;28.10;;;8.98;;
81353;SDS011;70810;52.038;8.524;2023-11-19T02:04:08;31.10;;;10.65;;
81353;SDS011;70810;52.038;8.524;2023-11-19T02:06:35;40.13;;;10.85;;
81353;SDS011;70810;52.038;8.524;2023-11-19T02:09:07;26.70;;;10.27;;
81353;SDS011;70810;52.038;8.524;2023-11-19T02:11:35;24.00;;;10.77;;
81353;SDS011;70810;52.038;8.524;2023-11-19T02:14:02;32.35;;;14.18;;
81353;SDS011;70810;52.038;8.524;2023-11-19T02:16:29;35.30;;;13.82;;
81353;SDS011;70810;52.038;8.524;2023-11-19T02:18:56;26.23;;;11.40;;
81353;SDS011;70810;52.038;8.524;2023-11-19T02:21:23;41.63;;;15.30;;
81353;SDS011;70810;52.038;8.524;2023-11-19T02:23:50;42.65;;;13.93;;
81353;SDS011;70810;52.038;8.524;2023-11-19T02:26:21;47.55;;;17.90;;
81353;SDS011;70810;52.038;8.524;2023-11-19T02:28:56;32.45;;;14.60;;
81353;SDS011;70810;52.038;8.524;2023-11-19T02:31:23;33.03;;;13.13;;
81353;SDS011;70810;52.038;8.524;2023-11-19T02:33:52;31.27;;;12.00;;
81353;SDS011;70810;52.038;8.524;2023-11-19T02:36:20;30.85;;;12.73;;
81353;SDS011;70810;52.038;8.524;2023-11-19T02:38:47;44.13;;;14.07;;
81353;SDS011;70810;52.038;8.524;2023-11-19T02:41:14;43.30;;;14.65;;
81353;SDS011;70810;52.038;8.524;2023-11-19T02:43:41;27.60;;;12.43;;
81353;SDS011;70810;52.038;8.524;2023-11-19T02:46:09;37.30;;;15.77;;
81353;SDS011;70810;52.038;8.524;2023-11-19T02:48:36;32.50;;;13.82;;
81353;SDS011;70810;52.038;8.524;2023-11-19T02:51:03;24.73;;;12.65;;
81353;SDS011;70810;52.038;8.524;2023-11-19T02:53:34;30.23;;;13.65;;
81353;SDS011;70810;52.038;8.524;2023-11-19T02:56:02;36.90;;;16.25;;
81353;SDS011;70810;52.038;8.524;2023-11-19T02:58:37;32.65;;;15.88;;
81353;SDS011;70810;52.038;8.524;2023-11-19T03:01:04;33.83;;;15.80;;
81353;SDS011;70810;52.038;8.524;2023-11-19T03:03:39;41.30;;;15.95;;
81353;SDS011;70810;52.038;8.524;2023-11-19T03:06:07;33.88;;;14.50;;
81353;SDS011;70810;52.038;8.524;2023-11-19T03:08:35;42.35;;;17.40;;
81353;SDS011;70810;52.038;8.524;2023-11-19T03:11:02;52.75;;;17.50;;
81353;SDS011;70810;52.038;8.524;2023-11-19T03:13:30;41.28;;;17.50;;
81353;SDS011;70810;52.038;8.524;2023-11-19T03:15:56;40.13;;;16.63;;
81353;SDS011;70810;52.038;8.524;2023-11-19T03:18:23;34.17;;;17.10;;
81353;SDS011;70810;52.038;8.524;2023-11-19T03:20:52;37.30;;;17.67;;
81353;SDS011;70810;52.038;8.524;2023-11-19T03:23:18;36.53;;;20.00;;
81353;SDS011;70810;52.038;8.524;2023-11-19T03:25:45;43.25;;;18.98;;
81353;SDS011;70810;52.038;8.524;2023-11-19T03:28:12;42.42;;;19.40;;
81353;SDS011;70810;52.038;8.524;2023-11-19T03:30:39;46.97;;;19.70;;
81353;SDS011;70810;52.038;8.524;2023-11-19T03:33:06;48.10;;;19.83;;
81353;SDS011;70810;52.038;8.524;2023-11-19T03:35:33;54.03;;;19.88;;
81353;SDS011;70810;52.038;8.524;2023-11-19T03:38:01;40.28;;;22.75;;
81353;SDS011;70810;52.038;8.524;2023-11-19T03:40:28;36.92;;;19.20;;
81353;SDS011;70810;52.038;8.524;2023-11-19T03:42:56;42.17;;;21.65;;
81353;SDS011;70810;52.038;8.524;2023-11-19T03:45:25;47.75;;;23.38;;
81353;SDS011;70810;52.038;8.524;2023-11-19T03:47:52;36.25;;;20.38;;
81353;SDS011;70810;52.038;8.524;2023-11-19T03:50:18;41.10;;;20.20;;
81353;SDS011;70810;52.038;8.524;2023-11-19T03:52:46;45.63;;;23.13;;
81353;SDS011;70810;52.038;8.524;2023-11-19T03:55:14;47.30;;;21.60;;
81353;SDS011;70810;52.038;8.524;2023-11-19T03:57:41;45.47;;;25.80;;
81353;SDS011;70810;52.038;8.524;2023-11-19T04:00:08;35.88;;;20.48;;
81353;SDS011;70810;52.038;8.524;2023-11-19T04:02:39;41.92;;;22.73;;
81353;SDS011;70810;52.038;8.524;2023-11-19T04:05:06;42.40;;;21.40;;
81353;SDS011;70810;52.038;8.524;2023-11-19T04:07:33;37.60;;;19.60;;
81353;SDS011;70810;52.038;8.524;2023-11-19T04:10:00;50.55;;;20.15;;
81353;SDS011;70810;52.038;8.524;2023-11-19T04:12:29;45.70;;;18.17;;
81353;SDS011;70810;52.038;8.524;2023-11-19T04:14:56;49.37;;;21.20;;
81353;SDS011;70810;52.038;8.524;2023-11-19T04:17:23;50.23;;;18.27;;
81353;SDS011;70810;52.038;8.524;2023-11-19T04:19:50;48.40;;;15.80;;
81353;SDS011;70810;52.038;8.524;2023-11-19T04:22:17;80.37;;;21.60;;
81353;SDS011;70810;52.038;8.524;2023-11-19T04:24:46;50.28;;;16.38;;
81353;SDS011;70810;52.038;8.524;2023-11-19T04:27:13;93.83;;;20.43;;
81353;SDS011;70810;52.038;8.524;2023-11-19T04:29:42;81.60;;;21.20;;
81353;SDS011;70810;52.038;8.524;2023-11-19T04:32:08;51.77;;;16.10;;
81353;SDS011;70810;52.038;8.524;2023-11-19T04:34:35;54.30;;;17.37;;
81353;SDS011;70810;52.038;8.524;2023-11-19T04:37:03;48.47;;;15.87;;
81353;SDS011;70810;52.038;8.524;2023-11-19T04:39:30;33.27;;;16.53;;
81353;SDS011;70810;52.038;8.524;2023-11-19T04:41:57;33.30;;;13.90;;
81353;SDS011;70810;52.038;8.524;2023-11-19T04:44:24;36.27;;;14.53;;
81353;SDS011;70810;52.038;8.524;2023-11-19T04:46:52;35.03;;;13.97;;
81353;SDS011;70810;52.038;8.524;2023-11-19T04:49:19;34.90;;;12.43;;
81353;SDS011;70810;52.038;8.524;2023-11-19T04:51:46;31.83;;;12.47;;
81353;SDS011;70810;52.038;8.524;2023-11-19T04:54:13;26.13;;;12.53;;
81353;SDS011;70810;52.038;8.524;2023-11-19T04:56:40;38.40;;;10.67;;
81353;SDS011;70810;52.038;8.524;2023-11-19T04:59:11;29.43;;;10.20;;
81353;SDS011;70810;52.038;8.524;2023-11-19T05:01:38;38.47;;;9.67;;
81353;SDS011;70810;52.038;8.524;2023-11-19T05:04:06;39.37;;;9.93;;
81353;SDS011;70810;52.038;8.524;2023-11-19T05:06:34;42.00;;;8.47;;
81353;SDS011;70810;52.038;8.524;2023-11-19T05:09:01;35.93;;;11.57;;
81353;SDS011;70810;52.038;8.524;2023-11-19T05:11:29;24.58;;;7.80;;
81353;SDS011;70810;52.038;8.524;2023-11-19T05:13:56;39.73;;;9.10;;
81353;SDS011;70810;52.038;8.524;2023-11-19T05:16:23;27.33;;;7.03;;
81353;SDS011;70810;52.038;8.524;2023-11-19T05:18:50;32.97;;;8.20;;
81353;SDS011;70810;52.038;8.524;2023-11-19T05:21:18;31.67;;;7.97;;
81353;SDS011;70810;52.038;8.524;2023-11-19T05:23:45;33.43;;;8.00;;
81353;SDS011;70810;52.038;8.524;2023-11-19T05:26:17;47.83;;;9.07;;
81353;SDS011;70810;52.038;8.524;2023-11-19T05:28:44;38.93;;;8.50;;
81353;SDS011;70810;52.038;8.524;2023-11-19T05:31:11;33.77;;;8.00;;
81353;SDS011;70810;52.038;8.524;2023-11-19T05:33:38;31.23;;;8.80;;
81353;SDS011;70810;52.038;8.524;2023-11-19T05:36:06;37.63;;;7.70;;
81353;SDS011;70810;52.038;8.524;2023-11-19T05:38:35;28.00;;;7.13;;
81353;SDS011;70810;52.038;8.524;2023-11-19T05:41:02;48.57;;;7.40;;
81353;SDS011;70810;52.038;8.524;2023-11-19T05:43:29;32.73;;;6.60;;
81353;SDS011;70810;52.038;8.524;2023-11-19T05:45:57;60.10;;;11.10;;
81353;SDS011;70810;52.038;8.524;2023-11-19T05:48:25;30.92;;;8.05;;
81353;SDS011;70810;52.038;8.524;2023-11-19T05:50:52;33.30;;;6.90;;
81353;SDS011;70810;52.038;8.524;2023-11-19T05:53:20;34.27;;;7.33;;
81353;SDS011;70810;52.038;8.524;2023-11-19T05:55:48;25.52;;;7.53;;
81353;SDS011;70810;52.038;8.524;2023-11-19T05:58:20;35.35;;;8.43;;
81353;SDS011;70810;52.038;8.524;2023-11-19T06:00:50;31.30;;;6.60;;
81353;SDS011;70810;52.038;8.524;2023-11-19T06:03:17;45.73;;;7.33;;
81353;SDS011;70810;52.038;8.524;2023-11-19T06:05:44;29.83;;;7.63;;
81353;SDS011;70810;52.038;8.524;2023-11-19T06:08:11;33.60;;;7.03;;
81353;SDS011;70810;52.038;8.524;2023-11-19T06:10:39;34.50;;;7.57;;
81353;SDS011;70810;52.038;8.524;2023-11-19T06:13:08;28.07;;;6.57;;
81353;SDS011;70810;52.038;8.524;2023-11-19T06:15:36;30.97;;;6.93;;
81353;SDS011;70810;52.038;8.524;2023-11-19T06:18:03;57.30;;;8.40;;
81353;SDS011;70810;52.038;8.524;2023-11-19T06:20:30;78.40;;;10.50;;
81353;SDS011;70810;52.038;8.524;2023-11-19T06:22:57;50.25;;;8.90;;
81353;SDS011;70810;52.038;8.524;2023-11-19T06:25:24;30.13;;;8.70;;
81353;SDS011;70810;52.038;8.524;2023-11-19T06:27:51;30.13;;;7.45;;
81353;SDS011;70810;52.038;8.524;2023-11-19T06:30:20;36.33;;;7.65;;
81353;SDS011;70810;52.038;8.524;2023-11-19T06:32:46;47.22;;;9.48;;
81353;SDS011;70810;52.038;8.524;2023-11-19T06:35:13;52.42;;;8.25;;
81353;SDS011;70810;52.038;8.524;2023-11-19T06:37:40;47.78;;;8.05;;
81353;SDS011;70810;52.038;8.524;2023-11-19T06:40:08;48.70;;;9.02;;
81353;SDS011;70810;52.038;8.524;2023-11-19T06:42:37;38.50;;;7.33;;
81353;SDS011;70810;52.038;8.524;2023-11-19T06:45:04;34.25;;;7.38;;
81353;SDS011;70810;52.038;8.524;2023-11-19T06:47:33;37.42;;;7.80;;
81353;SDS011;70810;52.038;8.524;2023-11-19T06:50:01;55.23;;;11.10;;
81353;SDS011;70810;52.038;8.524;2023-11-19T06:52:30;35.58;;;6.50;;
81353;SDS011;70810;52.038;8.524;2023-11-19T06:54:57;31.43;;;6.73;;
81353;SDS011;70810;52.038;8.524;2023-11-19T06:57:24;45.87;;;8.27;;
81353;SDS011;70810;52.038;8.524;2023-11-19T06:59:51;49.17;;;9.53;;
81353;SDS011;70810;52.038;8.524;2023-11-19T07:02:17;36.90;;;7.57;;
81353;SDS011;70810;52.038;8.524;2023-11-19T07:04:46;40.10;;;7.30;;
81353;SDS011;70810;52.038;8.524;2023-11-19T07:07:13;41.80;;;8.15;;
81353;SDS011;70810;52.038;8.524;2023-11-19T07:09:40;32.95;;;7.35;;
81353;SDS011;70810;52.038;8.524;2023-11-19T07:12:07;25.20;;;6.18;;
81353;SDS011;70810;52.038;8.524;2023-11-19T07:14:34;37.60;;;6.72;;
81353;SDS011;70810;52.038;8.524;2023-11-19T07:17:01;34.90;;;7.70;;
81353;SDS011;70810;52.038;8.524;2023-11-19T07:19:28;44.00;;;9.67;;
81353;SDS011;70810;52.038;8.524;2023-11-19T07:21:57;53.83;;;8.18;;
81353;SDS011;70810;52.038;8.524;2023-11-19T07:24:24;34.37;;;7.17;;
81353;SDS011;70810;52.038;8.524;2023-11-19T07:26:53;42.25;;;11.52;;
81353;SDS011;70810;52.038;8.524;2023-11-19T07:29:20;60.13;;;9.43;;
81353;SDS011;70810;52.038;8.524;2023-11-19T07:31:50;34.87;;;8.07;;
81353;SDS011;70810;52.038;8.524;2023-11-19T07:34:17;32.10;;;7.67;;
81353;SDS011;70810;52.038;8.524;2023-11-19T07:36:44;61.27;;;10.40;;
81353;SDS011;70810;52.038;8.524;2023-11-19T07:39:13;44.63;;;16.90;;
81353;SDS011;70810;52.038;8.524;2023-11-19T07:41:39;44.33;;;6.77;;
81353;SDS011;70810;52.038;8.524;2023-11-19T07:44:06;46.17;;;7.60;;
81353;SDS011;70810;52.038;8.524;2023-11-19T07:46:33;34.67;;;7.30;;
81353;SDS011;70810;52.038;8.524;2023-11-19T07:49:00;36.47;;;7.07;;
81353;SDS011;70810;52.038;8.524;2023-11-19T07:51:28;58.35;;;7.47;;
81353;SDS011;70810;52.038;8.524;2023-11-19T07:53:55;50.47;;;9.23;;
81353;SDS011;70810;52.038;8.524;2023-11-19T07:56:23;36.33;;;8.43;;
81353;SDS011;70810;52.038;8.524;2023-11-19T07:58:50;47.13;;;8.40;;
81353;SDS011;70810;52.038;8.524;2023-11-19T08:01:17;33.77;;;9.10;;
81353;SDS011;70810;52.038;8.524;2023-11-19T08:03:43;51.47;;;10.10;;
81353;SDS011;70810;52.038;8.524;2023-11-19T08:06:10;46.83;;;10.83;;
81353;SDS011;70810;52.038;8.524;2023-11-19T08:08:38;44.07;;;11.33;;
81353;SDS011;70810;52.038;8.524;2023-11-19T08:11:05;42.23;;;8.17;;
81353;SDS011;70810;52.038;8.524;2023-11-19T08:13:33;66.60;;;12.27;;
81353;SDS011;70810;52.038;8.524;2023-11-19T08:16:00;46.17;;;9.77;;
81353;SDS011;70810;52.038;8.524;2023-11-19T08:18:27;42.88;;;11.00;;
81353;SDS011;70810;52.038;8.524;2023-11-19T08:20:54;68.87;;;12.20;;
81353;SDS011;70810;52.038;8.524;2023-11-19T08:23:23;39.97;;;10.77;;
81353;SDS011;70810;52.038;8.524;2023-11-19T08:25:50;43.97;;;9.83;;
81353;SDS011;70810;52.038;8.524;2023-11-19T08:28:17;48.00;;;8.73;;
81353;SDS011;70810;52.038;8.524;2023-11-19T08:30:45;36.10;;;8.33;;
81353;SDS011;70810;52.038;8.524;2023-11-19T08:33:12;54.77;;;8.33;;
81353;SDS011;70810;52.038;8.524;2023-11-19T08:35:40;40.97;;;9.30;;
81353;SDS011;70810;52.038;8.524;2023-11-19T08:38:07;31.63;;;7.67;;
81353;SDS011;70810;52.038;8.524;2023-11-19T08:40:34;37.70;;;8.40;;
81353;SDS011;70810;52.038;8.524;2023-11-19T08:43:00;32.53;;;7.10;;
81353;SDS011;70810;52.038;8.524;2023-11-19T08:45:27;34.53;;;9.27;;
81353;SDS011;70810;52.038;8.524;2023-11-19T08:47:55;47.27;;;8.77;;
81353;SDS011;70810;52.038;8.524;2023-11-19T08:50:23;43.80;;;14.60;;
81353;SDS011;70810;52.038;8.524;2023-11-19T08:52:50;42.93;;;10.73;;
81353;SDS011;70810;52.038;8.524;2023-11-19T08:55:17;44.10;;;9.70;;
81353;SDS011;70810;52.038;8.524;2023-11-19T08:57:44;42.60;;;8.50;;
81353;SDS011;70810;52.038;8.524;2023-11-19T09:00:11;49.17;;;9.47;;
81353;SDS011;70810;52.038;8.524;2023-11-19T09:02:39;42.77;;;11.63;;
81353;SDS011;70810;52.038;8.524;2023-11-19T09:05:08;60.13;;;12.27;;
81353;SDS011;70810;52.038;8.524;2023-11-19T09:07:35;40.07;;;13.43;;
81353;SDS011;70810;52.038;8.524;2023-11-19T09:10:02;43.73;;;10.30;;
81353;SDS011;70810;52.038;8.524;2023-11-19T09:12:30;58.83;;;12.63;;
81353;SDS011;70810;52.038;8.524;2023-11-19T09:14:57;53.30;;;15.10;;
81353;SDS011;70810;52.038;8.524;2023-11-19T09:17:24;55.22;;;9.27;;
81353;SDS011;70810;52.038;8.524;2023-11-19T09:19:51;56.17;;;10.17;;
81353;SDS011;70810;52.038;8.524;2023-11-19T09:22:22;44.00;;;12.13;;
81353;SDS011;70810;52.038;8.524;2023-11-19T09:24:49;36.40;;;11.90;;
81353;SDS011;70810;52.038;8.524;2023-11-19T09:27:16;37.10;;;10.33;;
81353;SDS011;70810;52.038;8.524;2023-11-19T09:29:43;47.03;;;9.40;;
81353;SDS011;70810;52.038;8.524;2023-11-19T09:32:11;39.87;;;9.20;;
81353;SDS011;70810;52.038;8.524;2023-11-19T09:34:39;46.30;;;9.13;;
81353;SDS011;70810;52.038;8.524;2023-11-19T09:37:07;47.10;;;9.60;;
81353;SDS011;70810;52.038;8.524;2023-11-19T09:39:35;55.60;;;17.23;;
81353;SDS011;70810;52.038;8.524;2023-11-19T09:42:06;33.60;;;10.20;;
81353;SDS011;70810;52.038;8.524;2023-11-19T09:44:34;47.47;;;13.30;;
81353;SDS011;70810;52.038;8.524;2023-11-19T09:47:03;50.37;;;10.40;;
81353;SDS011;70810;52.038;8.524;2023-11-19T09:49:32;41.13;;;11.70;;
81353;SDS011;70810;52.038;8.524;2023-11-19T09:51:59;44.23;;;10.30;;
81353;SDS011;70810;52.038;8.524;2023-11-19T09:54:26;63.70;;;9.33;;
81353;SDS011;70810;52.038;8.524;2023-11-19T09:56:53;62.60;;;12.33;;
81353;SDS011;70810;52.038;8.524;2023-11-19T09:59:24;61.37;;;11.80;;
81353;SDS011;70810;52.038;8.524;2023-11-19T10:01:59;39.53;;;8.47;;
81353;SDS011;70810;52.038;8.524;2023-11-19T10:04:32;80.43;;;24.13;;
81353;SDS011;70810;52.038;8.524;2023-11-19T10:07:02;44.63;;;10.10;;
81353;SDS011;70810;52.038;8.524;2023-11-19T10:09:29;34.57;;;8.53;;
81353;SDS011;70810;52.038;8.524;2023-11-19T10:11:58;41.90;;;10.97;;
81353;SDS011;70810;52.038;8.524;2023-11-19T10:14:28;51.67;;;9.77;;
81353;SDS011;70810;52.038;8.524;2023-11-19T10:16:58;56.80;;;10.23;;
81353;SDS011;70810;52.038;8.524;2023-11-19T10:19:29;63.17;;;15.73;;
81353;SDS011;70810;52.038;8.524;2023-11-19T10:21:56;39.97;;;9.20;;
81353;SDS011;70810;52.038;8.524;2023-11-19T10:24:31;50.37;;;15.17;;
81353;SDS011;70810;52.038;8.524;2023-11-19T10:27:01;34.40;;;8.47;;
81353;SDS011;70810;52.038;8.524;2023-11-19T10:29:29;44.77;;;9.63;;
81353;SDS011;70810;52.038;8.524;2023-11-19T10:32:01;37.57;;;8.57;;
81353;SDS011;70810;52.038;8.524;2023-11-19T10:34:32;48.93;;;12.87;;
81353;SDS011;70810;52.038;8.524;2023-11-19T10:37:05;36.67;;;7.43;;
81353;SDS011;70810;52.038;8.524;2023-11-19T10:39:50;54.40;;;10.57;;
81353;SDS011;70810;52.038;8.524;2023-11-19T10:42:21;55.00;;;8.60;;
81353;SDS011;70810;52.038;8.524;2023-11-19T10:44:47;53.73;;;11.13;;
81353;SDS011;70810;52.038;8.524;2023-11-19T10:47:14;50.77;;;13.13;;
81353;SDS011;70810;52.038;8.524;2023-11-19T10:49:43;48.30;;;11.70;;
81353;SDS011;70810;52.038;8.524;2023-11-19T10:52:11;34.83;;;8.93;;
81353;SDS011;70810;52.038;8.524;2023-11-19T10:54:43;34.13;;;10.73;;
81353;SDS011;70810;52.038;8.524;2023-11-19T10:57:15;37.60;;;10.30;;
81353;SDS011;70810;52.038;8.524;2023-11-19T10:59:49;54.03;;;10.83;;
81353;SDS011;70810;52.038;8.524;2023-11-19T11:02:19;52.17;;;11.27;;
81353;SDS011;70810;52.038;8.524;2023-11-19T11:04:49;56.20;;;10.53;;
81353;SDS011;70810;52.038;8.524;2023-11-19T11:07:17;30.90;;;9.87;;
81353;SDS011;70810;52.038;8.524;2023-11-19T11:09:47;31.20;;;7.70;;
81353;SDS011;70810;52.038;8.524;2023-11-19T11:12:15;54.23;;;11.73;;
81353;SDS011;70810;52.038;8.524;2023-11-19T11:14:50;57.33;;;15.37;;
81353;SDS011;70810;52.038;8.524;2023-11-19T11:17:19;60.33;;;11.60;;
81353;SDS011;70810;52.038;8.524;2023-11-19T11:19:52;52.80;;;9.70;;
81353;SDS011;70810;52.038;8.524;2023-11-19T11:22:19;40.83;;;10.00;;
81353;SDS011;70810;52.038;8.524;2023-11-19T11:27:58;42.00;;;9.77;;
81353;SDS011;70810;52.038;8.524;2023-11-19T11:30:43;40.00;;;10.33;;
81353;SDS011;70810;52.038;8.524;2023-11-19T11:33:24;54.30;;;13.80;;
81353;SDS011;70810;52.038;8.524;2023-11-19T11:36:02;90.43;;;30.73;;
81353;SDS011;70810;52.038;8.524;2023-11-19T11:38:39;47.50;;;12.87;;
81353;SDS011;70810;52.038;8.524;2023-11-19T11:41:18;59.43;;;17.07;;
81353;SDS011;70810;52.038;8.524;2023-11-19T11:43:46;62.30;;;13.83;;
81353;SDS011;70810;52.038;8.524;2023-11-19T11:49:27;57.50;;;15.03;;
81353;SDS011;70810;52.038;8.524;2023-11-19T11:52:06;67.77;;;16.40;;
81353;SDS011;70810;52.038;8.524;2023-11-19T11:54:33;44.47;;;8.53;;
81353;SDS011;70810;52.038;8.524;2023-11-19T11:57:01;54.40;;;10.17;;
81353;SDS011;70810;52.038;8.524;2023-11-19T11:59:31;40.73;;;9.47;;
81353;SDS011;70810;52.038;8.524;2023-11-19T12:02:07;50.13;;;13.10;;
81353;SDS011;70810;52.038;8.524;2023-11-19T12:04:35;77.22;;;25.50;;
81353;SDS011;70810;52.038;8.524;2023-11-19T12:07:03;47.93;;;10.03;;
81353;SDS011;70810;52.038;8.524;2023-11-19T12:09:31;51.60;;;14.43;;
81353;SDS011;70810;52.038;8.524;2023-11-19T12:12:07;56.20;;;11.60;;
81353;SDS011;70810;52.038;8.524;2023-11-19T12:20:20;30.10;;;9.00;;
81353;SDS011;70810;52.038;8.524;2023-11-19T12:22:49;72.30;;;18.87;;
81353;SDS011;70810;52.038;8.524;2023-11-19T12:25:24;58.33;;;18.10;;
81353;SDS011;70810;52.038;8.524;2023-11-19T12:27:51;57.17;;;18.27;;
81353;SDS011;70810;52.038;8.524;2023-11-19T12:30:21;51.03;;;17.57;;
81353;SDS011;70810;52.038;8.524;2023-11-19T12:32:49;49.07;;;10.00;;
81353;SDS011;70810;52.038;8.524;2023-11-19T12:35:19;56.10;;;14.00;;
81353;SDS011;70810;52.038;8.524;2023-11-19T12:37:46;53.30;;;15.63;;
81353;SDS011;70810;52.038;8.524;2023-11-19T12:40:15;52.37;;;11.60;;
81353;SDS011;70810;52.038;8.524;2023-11-19T12:42:44;56.90;;;13.20;;
81353;SDS011;70810;52.038;8.524;2023-11-19T12:45:11;40.13;;;10.67;;
81353;SDS011;70810;52.038;8.524;2023-11-19T12:47:38;33.40;;;8.37;;
81353;SDS011;70810;52.038;8.524;2023-11-19T12:50:07;48.67;;;15.43;;
81353;SDS011;70810;52.038;8.524;2023-11-19T12:52:35;54.73;;;16.97;;
81353;SDS011;70810;52.038;8.524;2023-11-19T12:55:03;47.70;;;14.80;;
81353;SDS011;70810;52.038;8.524;2023-11-19T12:57:38;43.37;;;8.90;;
81353;SDS011;70810;52.038;8.524;2023-11-19T13:00:06;53.10;;;15.90;;
81353;SDS011;70810;52.038;8.524;2023-11-19T13:02:46;71.17;;;15.53;;
81353;SDS011;70810;52.038;8.524;2023-11-19T13:05:22;32.83;;;9.10;;
81353;SDS011;70810;52.038;8.524;2023-11-19T13:07:52;46.97;;;13.93;;
81353;SDS011;70810;52.038;8.524;2023-11-19T13:10:25;38.90;;;9.00;;
81353;SDS011;70810;52.038;8.524;2023-11-19T13:13:02;62.03;;;22.40;;
81353;SDS011;70810;52.038;8.524;2023-11-19T13:15:30;49.90;;;16.87;;
81353;SDS011;70810;52.038;8.524;2023-11-19T13:17:57;38.53;;;10.80;;
81353;SDS011;70810;52.038;8.524;2023-11-19T13:20:26;32.70;;;9.90;;
81353;SDS011;70810;52.038;8.524;2023-11-19T13:22:56;43.43;;;9.37;;
81353;SDS011;70810;52.038;8.524;2023-11-19T13:25:24;45.57;;;9.90;;
81353;SDS011;70810;52.038;8.524;2023-11-19T13:27:51;44.17;;;9.53;;
81353;SDS011;70810;52.038;8.524;2023-11-19T13:30:18;44.87;;;10.30;;
81353;SDS011;70810;52.038;8.524;2023-11-19T13:32:45;39.07;;;12.70;;
81353;SDS011;70810;52.038;8.524;2023-11-19T13:35:12;30.20;;;7.60;;
81353;SDS011;70810;52.038;8.524;2023-11-19T13:37:42;23.30;;;6.57;;
81353;SDS011;70810;52.038;8.524;2023-11-19T13:40:13;69.53;;;14.67;;
81353;SDS011;70810;52.038;8.524;2023-11-19T13:42:40;48.17;;;9.43;;
81353;SDS011;70810;52.038;8.524;2023-11-19T13:45:08;38.50;;;14.30;;
81353;SDS011;70810;52.038;8.524;2023-11-19T13:47:37;53.00;;;15.63;;
81353;SDS011;70810;52.038;8.524;2023-11-19T13:50:06;51.60;;;17.30;;
81353;SDS011;70810;52.038;8.524;2023-11-19T13:52:34;35.10;;;11.13;;
81353;SDS011;70810;52.038;8.524;2023-11-19T13:55:05;35.63;;;9.53;;
81353;SDS011;70810;52.038;8.524;2023-11-19T13:57:33;63.20;;;9.30;;
81353;SDS011;70810;52.038;8.524;2023-11-19T14:00:01;29.70;;;10.10;;
81353;SDS011;70810;52.038;8.524;2023-11-19T14:02:30;74.17;;;22.10;;
81353;SDS011;70810;52.038;8.524;2023-11-19T14:04:57;51.10;;;15.10;;
81353;SDS011;70810;52.038;8.524;2023-11-19T14:07:25;48.90;;;14.30;;
81353;SDS011;70810;52.038;8.524;2023-11-19T14:09:55;42.13;;;12.20;;
81353;SDS011;70810;52.038;8.524;2023-11-19T14:12:25;36.03;;;7.93;;
81353;SDS011;70810;52.038;8.524;2023-11-19T14:14:52;50.17;;;16.57;;
81353;SDS011;70810;52.038;8.524;2023-11-19T14:17:19;27.93;;;7.53;;
81353;SDS011;70810;52.038;8.524;2023-11-19T14:19:46;43.00;;;13.70;;
81353;SDS011;70810;52.038;8.524;2023-11-19T14:22:15;41.27;;;15.07;;
81353;SDS011;70810;52.038;8.524;2023-11-19T14:24:42;56.17;;;15.30;;
81353;SDS011;70810;52.038;8.524;2023-11-19T14:27:09;47.10;;;10.13;;
81353;SDS011;70810;52.038;8.524;2023-11-19T14:29:37;38.00;;;12.30;;
81353;SDS011;70810;52.038;8.524;2023-11-19T14:32:05;38.00;;;10.53;;
81353;SDS011;70810;52.038;8.524;2023-11-19T14:34:32;43.07;;;8.60;;
81353;SDS011;70810;52.038;8.524;2023-11-19T14:36:59;38.43;;;8.70;;
81353;SDS011;70810;52.038;8.524;2023-11-19T14:39:26;31.63;;;10.03;;
81353;SDS011;70810;52.038;8.524;2023-11-19T14:41:57;38.33;;;12.73;;
81353;SDS011;70810;52.038;8.524;2023-11-19T14:44:29;42.53;;;11.20;;
81353;SDS011;70810;52.038;8.524;2023-11-19T14:46:57;33.07;;;10.97;;